sensor_id;sensor_type;location;lat;lon;timestamp;pressure;altitude;pressure_sealevel;temperature;humidity
75172;BME280;63750;52.418;20.742;2023-07-20T00:01:10;99968.70;;;22.26;49.59
75172;BME280;63750;52.418;20.742;2023-07-20T00:03:38;99967.25;;;22.29;49.76
75172;BME280;63750;52.418;20.742;2023-07-20T00:06:07;99962.18;;;22.28;49.42
75172;BME280;63750;52.418;20.742;2023-07-20T00:08:35;99955.98;;;22.25;49.69
75172;BME280;63750;52.418;20.742;2023-07-20T00:11:04;99952.73;;;22.21;49.51
75172;BME280;63750;52.418;20.742;2023-07-20T00:13:32;99953.92;;;22.16;49.34
75172;BME280;63750;52.418;20.742;2023-07-20T00:16:00;99958.37;;;22.09;49.93
75172;BME280;63750;52.418;20.742;2023-07-20T00:18:28;99955.83;;;22.13;50.61
75172;BME280;63750;52.418;20.742;2023-07-20T00:20:56;99950.71;;;22.12;49.46
75172;BME280;63750;52.418;20.742;2023-07-20T00:23:24;99943.21;;;22.04;49.35
75172;BME280;63750;52.418;20.742;2023-07-20T00:25:52;99940.28;;;21.99;49.18
75172;BME280;63750;52.418;20.742;2023-07-20T00:28:20;99947.05;;;21.97;49.29
75172;BME280;63750;52.418;20.742;2023-07-20T00:30:48;99944.81;;;21.94;48.80
75172;BME280;63750;52.418;20.742;2023-07-20T00:33:17;99941.62;;;21.93;48.80
75172;BME280;63750;52.418;20.742;2023-07-20T00:35:46;99945.08;;;21.93;48.75
75172;BME280;63750;52.418;20.742;2023-07-20T00:38:14;99945.71;;;21.91;48.42
75172;BME280;63750;52.418;20.742;2023-07-20T00:40:42;99946.52;;;21.94;49.72
75172;BME280;63750;52.418;20.742;2023-07-20T00:43:10;99947.11;;;22.00;49.29
75172;BME280;63750;52.418;20.742;2023-07-20T00:45:39;99941.97;;;22.03;49.01
75172;BME280;63750;52.418;20.742;2023-07-20T00:48:09;99944.16;;;22.10;49.81
75172;BME280;63750;52.418;20.742;2023-07-20T00:50:37;99948.98;;;22.15;49.29
75172;BME280;63750;52.418;20.742;2023-07-20T00:53:07;99944.70;;;22.19;48.79
75172;BME280;63750;52.418;20.742;2023-07-20T00:55:35;99932.96;;;22.18;48.98
75172;BME280;63750;52.418;20.742;2023-07-20T00:58:04;99930.79;;;22.14;48.80
75172;BME280;63750;52.418;20.742;2023-07-20T01:00:32;99927.34;;;22.10;49.27
75172;BME280;63750;52.418;20.742;2023-07-20T01:03:00;99928.87;;;22.07;49.30
75172;BME280;63750;52.418;20.742;2023-07-20T01:05:38;99935.49;;;22.07;48.64
75172;BME280;63750;52.418;20.742;2023-07-20T01:08:17;99941.88;;;22.10;49.64
75172;BME280;63750;52.418;20.742;2023-07-20T01:10:53;99951.51;;;22.12;48.67
75172;BME280;63750;52.418;20.742;2023-07-20T01:13:23;99962.63;;;22.11;49.20
75172;BME280;63750;52.418;20.742;2023-07-20T01:15:56;99948.94;;;22.11;49.49
75172;BME280;63750;52.418;20.742;2023-07-20T01:18:24;99933.19;;;22.16;50.61
75172;BME280;63750;52.418;20.742;2023-07-20T01:20:53;99921.23;;;22.16;50.81
75172;BME280;63750;52.418;20.742;2023-07-20T01:23:46;99918.16;;;22.12;51.15
75172;BME280;63750;52.418;20.742;2023-07-20T01:26:41;99927.27;;;21.95;51.57
75172;BME280;63750;52.418;20.742;2023-07-20T01:29:26;99927.16;;;21.84;52.32
75172;BME280;63750;52.418;20.742;2023-07-20T01:32:01;99926.23;;;21.76;52.65
75172;BME280;63750;52.418;20.742;2023-07-20T01:34:30;99928.90;;;21.65;52.92
75172;BME280;63750;52.418;20.742;2023-07-20T01:37:00;99927.02;;;21.61;53.77
75172;BME280;63750;52.418;20.742;2023-07-20T01:39:29;99926.58;;;21.59;53.62
75172;BME280;63750;52.418;20.742;2023-07-20T01:41:58;99925.95;;;21.48;53.98
75172;BME280;63750;52.418;20.742;2023-07-20T01:44:27;99926.61;;;21.40;54.20
75172;BME280;63750;52.418;20.742;2023-07-20T01:46:55;99929.03;;;21.35;54.18
75172;BME280;63750;52.418;20.742;2023-07-20T01:49:23;99938.09;;;21.30;54.55
75172;BME280;63750;52.418;20.742;2023-07-20T01:51:51;99949.34;;;21.31;55.44
75172;BME280;63750;52.418;20.742;2023-07-20T01:54:19;99941.23;;;21.46;55.38
75172;BME280;63750;52.418;20.742;2023-07-20T01:56:47;99935.10;;;21.50;54.47
75172;BME280;63750;52.418;20.742;2023-07-20T01:59:15;99937.70;;;21.42;54.43
75172;BME280;63750;52.418;20.742;2023-07-20T02:01:43;99940.25;;;21.36;54.59
75172;BME280;63750;52.418;20.742;2023-07-20T02:04:12;99943.30;;;21.32;54.60
75172;BME280;63750;52.418;20.742;2023-07-20T02:06:40;99953.91;;;21.32;55.03
75172;BME280;63750;52.418;20.742;2023-07-20T02:09:08;99944.31;;;21.38;55.34
75172;BME280;63750;52.418;20.742;2023-07-20T02:11:36;99934.07;;;21.47;55.57
75172;BME280;63750;52.418;20.742;2023-07-20T02:14:04;99927.05;;;21.56;55.64
75172;BME280;63750;52.418;20.742;2023-07-20T02:16:32;99931.02;;;21.65;55.33
75172;BME280;63750;52.418;20.742;2023-07-20T02:19:00;99930.06;;;21.69;55.06
75172;BME280;63750;52.418;20.742;2023-07-20T02:21:28;99926.30;;;21.71;55.22
75172;BME280;63750;52.418;20.742;2023-07-20T02:23:56;99917.52;;;21.74;54.94
75172;BME280;63750;52.418;20.742;2023-07-20T02:26:24;99914.63;;;21.75;54.44
75172;BME280;63750;52.418;20.742;2023-07-20T02:28:53;99916.24;;;21.70;54.46
75172;BME280;63750;52.418;20.742;2023-07-20T02:31:21;99917.52;;;21.63;54.17
75172;BME280;63750;52.418;20.742;2023-07-20T02:33:49;99925.07;;;21.48;53.77
75172;BME280;63750;52.418;20.742;2023-07-20T02:36:17;99931.59;;;21.43;54.96
75172;BME280;63750;52.418;20.742;2023-07-20T02:38:45;99933.45;;;21.52;54.81
75172;BME280;63750;52.418;20.742;2023-07-20T02:41:14;99931.98;;;21.57;54.89
75172;BME280;63750;52.418;20.742;2023-07-20T02:43:42;99928.29;;;21.57;54.64
75172;BME280;63750;52.418;20.742;2023-07-20T02:46:10;99930.54;;;21.53;54.15
75172;BME280;63750;52.418;20.742;2023-07-20T02:48:38;99933.39;;;21.49;54.34
75172;BME280;63750;52.418;20.742;2023-07-20T02:51:06;99933.10;;;21.50;54.44
75172;BME280;63750;52.418;20.742;2023-07-20T02:53:34;99936.96;;;21.51;54.34
75172;BME280;63750;52.418;20.742;2023-07-20T02:56:02;99934.71;;;21.50;54.49
75172;BME280;63750;52.418;20.742;2023-07-20T02:58:30;99927.95;;;21.58;55.27
75172;BME280;63750;52.418;20.742;2023-07-20T03:01:01;99920.73;;;21.62;54.54
75172;BME280;63750;52.418;20.742;2023-07-20T03:03:29;99917.38;;;21.59;54.05
75172;BME280;63750;52.418;20.742;2023-07-20T03:05:57;99915.10;;;21.57;54.44
75172;BME280;63750;52.418;20.742;2023-07-20T03:08:25;99917.42;;;21.57;54.38
75172;BME280;63750;52.418;20.742;2023-07-20T03:10:53;99923.58;;;21.53;54.18
75172;BME280;63750;52.418;20.742;2023-07-20T03:13:21;99926.94;;;21.48;54.36
75172;BME280;63750;52.418;20.742;2023-07-20T03:15:49;99928.33;;;21.48;54.70
75172;BME280;63750;52.418;20.742;2023-07-20T03:18:19;99931.02;;;21.48;54.85
75172;BME280;63750;52.418;20.742;2023-07-20T03:20:47;99934.63;;;21.52;54.88
75172;BME280;63750;52.418;20.742;2023-07-20T03:23:15;99936.41;;;21.54;54.85
75172;BME280;63750;52.418;20.742;2023-07-20T03:25:44;99938.11;;;21.55;54.71
75172;BME280;63750;52.418;20.742;2023-07-20T03:28:12;99945.98;;;21.50;54.84
75172;BME280;63750;52.418;20.742;2023-07-20T03:30:40;99949.16;;;21.47;54.77
75172;BME280;63750;52.418;20.742;2023-07-20T03:33:08;99943.30;;;21.45;54.91
75172;BME280;63750;52.418;20.742;2023-07-20T03:35:36;99947.27;;;21.42;54.82
75172;BME280;63750;52.418;20.742;2023-07-20T03:38:04;99950.30;;;21.37;54.92
75172;BME280;63750;52.418;20.742;2023-07-20T03:40:32;99957.91;;;21.31;54.74
75172;BME280;63750;52.418;20.742;2023-07-20T03:43:00;99965.09;;;21.25;54.97
75172;BME280;63750;52.418;20.742;2023-07-20T03:45:28;99967.23;;;21.20;55.35
75172;BME280;63750;52.418;20.742;2023-07-20T03:47:56;99976.27;;;21.19;55.62
75172;BME280;63750;52.418;20.742;2023-07-20T03:50:25;99974.77;;;21.19;55.50
75172;BME280;63750;52.418;20.742;2023-07-20T03:52:53;99980.33;;;21.18;55.75
75172;BME280;63750;52.418;20.742;2023-07-20T03:55:21;99985.10;;;21.23;56.35
75172;BME280;63750;52.418;20.742;2023-07-20T03:57:49;99983.13;;;21.27;56.17
75172;BME280;63750;52.418;20.742;2023-07-20T04:00:17;99989.30;;;21.32;55.95
75172;BME280;63750;52.418;20.742;2023-07-20T04:02:46;99993.17;;;21.35;55.76
75172;BME280;63750;52.418;20.742;2023-07-20T04:05:14;100001.83;;;21.38;55.22
75172;BME280;63750;52.418;20.742;2023-07-20T04:07:42;100003.64;;;21.35;55.44
75172;BME280;63750;52.418;20.742;2023-07-20T04:10:11;100012.54;;;21.36;55.07
75172;BME280;63750;52.418;20.742;2023-07-20T04:12:39;100018.40;;;21.40;55.52
75172;BME280;63750;52.418;20.742;2023-07-20T04:15:09;100021.71;;;21.53;56.25
75172;BME280;63750;52.418;20.742;2023-07-20T04:17:37;100024.55;;;21.58;55.16
75172;BME280;63750;52.418;20.742;2023-07-20T04:20:07;100023.56;;;21.50;54.98
75172;BME280;63750;52.418;20.742;2023-07-20T04:22:35;100031.02;;;21.51;55.08
75172;BME280;63750;52.418;20.742;2023-07-20T04:25:04;100036.14;;;21.53;55.08
75172;BME280;63750;52.418;20.742;2023-07-20T04:27:32;100045.91;;;21.54;55.37
75172;BME280;63750;52.418;20.742;2023-07-20T04:30:01;100059.14;;;21.46;56.24
75172;BME280;63750;52.418;20.742;2023-07-20T04:32:29;100066.58;;;21.48;57.23
75172;BME280;63750;52.418;20.742;2023-07-20T04:34:57;100064.49;;;21.51;56.52
75172;BME280;63750;52.418;20.742;2023-07-20T04:37:25;100061.91;;;21.41;57.38
75172;BME280;63750;52.418;20.742;2023-07-20T04:39:53;100055.30;;;21.66;57.67
75172;BME280;63750;52.418;20.742;2023-07-20T04:42:21;100060.02;;;22.00;56.82
75172;BME280;63750;52.418;20.742;2023-07-20T04:44:49;100069.17;;;22.19;55.82
75172;BME280;63750;52.418;20.742;2023-07-20T04:47:17;100071.56;;;22.33;55.39
75172;BME280;63750;52.418;20.742;2023-07-20T04:49:45;100065.62;;;22.50;55.09
75172;BME280;63750;52.418;20.742;2023-07-20T04:52:13;100061.55;;;22.70;54.50
75172;BME280;63750;52.418;20.742;2023-07-20T04:54:41;100067.52;;;22.85;53.90
75172;BME280;63750;52.418;20.742;2023-07-20T04:57:13;100073.25;;;22.99;53.58
75172;BME280;63750;52.418;20.742;2023-07-20T04:59:41;100068.23;;;23.16;53.08
75172;BME280;63750;52.418;20.742;2023-07-20T05:02:09;100065.32;;;23.29;52.62
75172;BME280;63750;52.418;20.742;2023-07-20T05:04:37;100060.22;;;23.32;52.20
75172;BME280;63750;52.418;20.742;2023-07-20T05:07:05;100055.64;;;23.42;52.12
75172;BME280;63750;52.418;20.742;2023-07-20T05:09:33;100060.46;;;23.52;51.82
75172;BME280;63750;52.418;20.742;2023-07-20T05:12:02;100052.45;;;23.64;51.28
75172;BME280;63750;52.418;20.742;2023-07-20T05:14:30;100052.05;;;23.70;51.02
75172;BME280;63750;52.418;20.742;2023-07-20T05:17:00;100053.65;;;23.72;50.83
75172;BME280;63750;52.418;20.742;2023-07-20T05:19:29;100054.85;;;23.75;50.73
75172;BME280;63750;52.418;20.742;2023-07-20T05:21:57;100052.80;;;23.81;50.61
75172;BME280;63750;52.418;20.742;2023-07-20T05:24:25;100056.86;;;23.87;50.25
75172;BME280;63750;52.418;20.742;2023-07-20T05:26:53;100058.95;;;23.86;49.96
75172;BME280;63750;52.418;20.742;2023-07-20T05:29:21;100061.72;;;23.86;49.97
75172;BME280;63750;52.418;20.742;2023-07-20T05:31:49;100059.08;;;23.83;50.10
75172;BME280;63750;52.418;20.742;2023-07-20T05:34:17;100058.95;;;23.86;50.01
75172;BME280;63750;52.418;20.742;2023-07-20T05:36:45;100063.92;;;23.98;49.93
75172;BME280;63750;52.418;20.742;2023-07-20T05:39:13;100062.64;;;24.03;49.59
75172;BME280;63750;52.418;20.742;2023-07-20T05:41:42;100064.91;;;24.05;49.46
75172;BME280;63750;52.418;20.742;2023-07-20T05:44:10;100064.25;;;24.05;49.27
75172;BME280;63750;52.418;20.742;2023-07-20T05:46:38;100064.46;;;24.04;49.37
75172;BME280;63750;52.418;20.742;2023-07-20T05:49:06;100063.97;;;24.05;49.19
75172;BME280;63750;52.418;20.742;2023-07-20T05:51:34;100065.92;;;24.03;49.09
75172;BME280;63750;52.418;20.742;2023-07-20T05:54:02;100064.64;;;24.03;49.31
75172;BME280;63750;52.418;20.742;2023-07-20T05:56:30;100064.09;;;24.00;49.32
75172;BME280;63750;52.418;20.742;2023-07-20T05:58:58;100063.32;;;24.02;49.40
75172;BME280;63750;52.418;20.742;2023-07-20T06:01:26;100067.28;;;24.04;49.90
75172;BME280;63750;52.418;20.742;2023-07-20T06:03:54;100068.86;;;24.04;50.06
75172;BME280;63750;52.418;20.742;2023-07-20T06:06:22;100065.10;;;24.06;50.48
75172;BME280;63750;52.418;20.742;2023-07-20T06:08:50;100068.81;;;24.07;50.15
75172;BME280;63750;52.418;20.742;2023-07-20T06:11:18;100066.62;;;24.03;50.16
75172;BME280;63750;52.418;20.742;2023-07-20T06:13:46;100066.77;;;24.05;50.40
75172;BME280;63750;52.418;20.742;2023-07-20T06:16:14;100065.83;;;24.11;50.15
75172;BME280;63750;52.418;20.742;2023-07-20T06:18:43;100064.88;;;24.14;50.09
75172;BME280;63750;52.418;20.742;2023-07-20T06:21:11;100061.27;;;24.19;49.61
75172;BME280;63750;52.418;20.742;2023-07-20T06:23:39;100058.81;;;24.24;49.41
75172;BME280;63750;52.418;20.742;2023-07-20T06:26:08;100057.35;;;24.27;49.24
75172;BME280;63750;52.418;20.742;2023-07-20T06:28:37;100056.70;;;24.31;49.11
75172;BME280;63750;52.418;20.742;2023-07-20T06:31:05;100053.73;;;24.32;48.92
75172;BME280;63750;52.418;20.742;2023-07-20T06:33:33;100053.64;;;24.28;48.97
75172;BME280;63750;52.418;20.742;2023-07-20T06:36:01;100053.56;;;24.25;49.39
75172;BME280;63750;52.418;20.742;2023-07-20T06:38:29;100052.81;;;24.20;49.27
75172;BME280;63750;52.418;20.742;2023-07-20T06:40:57;100050.27;;;24.18;49.29
75172;BME280;63750;52.418;20.742;2023-07-20T06:43:25;100043.57;;;24.17;49.33
75172;BME280;63750;52.418;20.742;2023-07-20T06:45:54;100044.52;;;24.19;49.22
75172;BME280;63750;52.418;20.742;2023-07-20T06:48:22;100042.02;;;24.18;48.92
75172;BME280;63750;52.418;20.742;2023-07-20T06:50:50;100042.11;;;24.13;49.31
75172;BME280;63750;52.418;20.742;2023-07-20T06:53:18;100033.81;;;24.18;49.03
75172;BME280;63750;52.418;20.742;2023-07-20T06:55:46;100034.70;;;24.12;48.66
75172;BME280;63750;52.418;20.742;2023-07-20T06:58:15;100037.48;;;24.07;48.81
75172;BME280;63750;52.418;20.742;2023-07-20T07:00:43;100041.83;;;24.05;48.74
75172;BME280;63750;52.418;20.742;2023-07-20T07:03:11;100040.19;;;24.02;48.84
75172;BME280;63750;52.418;20.742;2023-07-20T07:05:39;100042.50;;;23.97;48.80
75172;BME280;63750;52.418;20.742;2023-07-20T07:08:07;100048.15;;;23.93;49.09
75172;BME280;63750;52.418;20.742;2023-07-20T07:10:36;100054.77;;;23.95;49.19
75172;BME280;63750;52.418;20.742;2023-07-20T07:13:04;100060.50;;;23.94;49.11
75172;BME280;63750;52.418;20.742;2023-07-20T07:15:33;100058.11;;;23.92;49.18
75172;BME280;63750;52.418;20.742;2023-07-20T07:18:01;100055.23;;;23.92;49.13
75172;BME280;63750;52.418;20.742;2023-07-20T07:20:29;100058.20;;;23.86;48.98
75172;BME280;63750;52.418;20.742;2023-07-20T07:22:57;100058.09;;;23.82;49.17
75172;BME280;63750;52.418;20.742;2023-07-20T07:25:25;100060.11;;;23.81;49.25
75172;BME280;63750;52.418;20.742;2023-07-20T07:27:54;100058.81;;;23.81;49.31
75172;BME280;63750;52.418;20.742;2023-07-20T07:30:22;100058.75;;;23.79;49.21
75172;BME280;63750;52.418;20.742;2023-07-20T07:32:50;100063.61;;;23.78;49.20
75172;BME280;63750;52.418;20.742;2023-07-20T07:35:18;100064.48;;;23.82;49.29
75172;BME280;63750;52.418;20.742;2023-07-20T07:37:46;100065.48;;;23.81;49.11
75172;BME280;63750;52.418;20.742;2023-07-20T07:40:14;100068.51;;;23.80;49.24
75172;BME280;63750;52.418;20.742;2023-07-20T07:42:43;100075.84;;;23.81;49.40
75172;BME280;63750;52.418;20.742;2023-07-20T07:45:11;100076.66;;;23.83;49.42
75172;BME280;63750;52.418;20.742;2023-07-20T07:47:39;100079.64;;;23.82;49.62
75172;BME280;63750;52.418;20.742;2023-07-20T07:50:08;100081.14;;;23.85;49.75
75172;BME280;63750;52.418;20.742;2023-07-20T07:52:37;100087.27;;;23.94;50.13
75172;BME280;63750;52.418;20.742;2023-07-20T07:55:06;100091.02;;;24.00;50.10
75172;BME280;63750;52.418;20.742;2023-07-20T07:57:34;100093.17;;;24.04;50.19
75172;BME280;63750;52.418;20.742;2023-07-20T08:00:03;100091.38;;;24.06;50.01
75172;BME280;63750;52.418;20.742;2023-07-20T08:02:31;100092.00;;;24.02;49.72
75172;BME280;63750;52.418;20.742;2023-07-20T08:04:59;100092.20;;;24.00;50.14
75172;BME280;63750;52.418;20.742;2023-07-20T08:07:27;100098.15;;;23.99;49.85
75172;BME280;63750;52.418;20.742;2023-07-20T08:09:55;100105.08;;;23.98;49.83
75172;BME280;63750;52.418;20.742;2023-07-20T08:12:23;100104.23;;;23.96;49.88
75172;BME280;63750;52.418;20.742;2023-07-20T08:14:52;100105.20;;;23.95;49.65
75172;BME280;63750;52.418;20.742;2023-07-20T08:17:20;100105.11;;;23.96;49.71
75172;BME280;63750;52.418;20.742;2023-07-20T08:19:49;100105.80;;;24.01;49.19
75172;BME280;63750;52.418;20.742;2023-07-20T08:22:17;100112.39;;;23.99;48.66
75172;BME280;63750;52.418;20.742;2023-07-20T08:24:45;100116.37;;;23.98;48.63
75172;BME280;63750;52.418;20.742;2023-07-20T08:27:13;100119.50;;;24.01;48.66
75172;BME280;63750;52.418;20.742;2023-07-20T08:29:41;100120.48;;;24.03;48.45
75172;BME280;63750;52.418;20.742;2023-07-20T08:32:10;100123.59;;;24.04;48.48
75172;BME280;63750;52.418;20.742;2023-07-20T08:34:38;100125.55;;;24.01;48.60
75172;BME280;63750;52.418;20.742;2023-07-20T08:37:06;100131.41;;;23.72;48.86
75172;BME280;63750;52.418;20.742;2023-07-20T08:39:34;100132.29;;;23.56;49.75
75172;BME280;63750;52.418;20.742;2023-07-20T08:42:03;100135.15;;;23.36;50.12
75172;BME280;63750;52.418;20.742;2023-07-20T08:44:33;100135.04;;;23.09;51.08
75172;BME280;63750;52.418;20.742;2023-07-20T08:47:02;100134.01;;;22.90;52.11
75172;BME280;63750;52.418;20.742;2023-07-20T08:49:30;100131.92;;;22.69;52.64
75172;BME280;63750;52.418;20.742;2023-07-20T08:51:59;100133.39;;;22.53;53.18
75172;BME280;63750;52.418;20.742;2023-07-20T08:54:31;100132.77;;;22.46;53.92
75172;BME280;63750;52.418;20.742;2023-07-20T08:57:03;100136.66;;;22.39;53.85
75172;BME280;63750;52.418;20.742;2023-07-20T08:59:32;100141.09;;;22.30;53.92
75172;BME280;63750;52.418;20.742;2023-07-20T09:02:01;100136.20;;;22.21;54.63
75172;BME280;63750;52.418;20.742;2023-07-20T09:04:30;100132.80;;;22.20;55.32
75172;BME280;63750;52.418;20.742;2023-07-20T09:06:58;100136.83;;;22.33;55.60
75172;BME280;63750;52.418;20.742;2023-07-20T09:09:27;100133.59;;;22.27;55.37
75172;BME280;63750;52.418;20.742;2023-07-20T09:11:55;100130.77;;;22.16;55.74
75172;BME280;63750;52.418;20.742;2023-07-20T09:14:24;100126.05;;;22.20;56.16
75172;BME280;63750;52.418;20.742;2023-07-20T09:16:54;100131.43;;;22.29;55.62
75172;BME280;63750;52.418;20.742;2023-07-20T09:19:23;100136.42;;;22.38;56.01
75172;BME280;63750;52.418;20.742;2023-07-20T09:21:51;100138.95;;;22.33;55.59
75172;BME280;63750;52.418;20.742;2023-07-20T09:24:20;100137.85;;;22.41;55.82
75172;BME280;63750;52.418;20.742;2023-07-20T09:26:49;100134.01;;;22.49;55.47
75172;BME280;63750;52.418;20.742;2023-07-20T09:29:19;100137.20;;;22.46;54.58
75172;BME280;63750;52.418;20.742;2023-07-20T09:31:59;100143.02;;;22.24;54.83
75172;BME280;63750;52.418;20.742;2023-07-20T09:34:28;100140.96;;;22.13;54.97
75172;BME280;63750;52.418;20.742;2023-07-20T09:36:56;100140.98;;;22.04;56.12
75172;BME280;63750;52.418;20.742;2023-07-20T09:39:25;100136.64;;;22.12;56.56
75172;BME280;63750;52.418;20.742;2023-07-20T09:41:53;100137.27;;;22.24;56.42
75172;BME280;63750;52.418;20.742;2023-07-20T09:44:22;100135.45;;;22.21;55.08
75172;BME280;63750;52.418;20.742;2023-07-20T09:46:50;100131.27;;;22.03;54.97
75172;BME280;63750;52.418;20.742;2023-07-20T09:49:19;100134.66;;;21.98;56.29
75172;BME280;63750;52.418;20.742;2023-07-20T09:51:48;100133.58;;;22.14;56.49
75172;BME280;63750;52.418;20.742;2023-07-20T09:54:17;100134.87;;;22.39;56.14
75172;BME280;63750;52.418;20.742;2023-07-20T09:56:47;100132.61;;;22.61;55.27
75172;BME280;63750;52.418;20.742;2023-07-20T09:59:16;100130.17;;;22.58;54.67
75172;BME280;63750;52.418;20.742;2023-07-20T10:01:45;100133.23;;;22.61;54.99
75172;BME280;63750;52.418;20.742;2023-07-20T10:04:15;100138.09;;;22.66;54.57
75172;BME280;63750;52.418;20.742;2023-07-20T10:06:47;100137.00;;;22.66;54.95
75172;BME280;63750;52.418;20.742;2023-07-20T10:09:17;100132.39;;;22.77;54.78
75172;BME280;63750;52.418;20.742;2023-07-20T10:11:48;100139.96;;;22.95;54.40
75172;BME280;63750;52.418;20.742;2023-07-20T10:14:20;100142.75;;;23.09;53.94
75172;BME280;63750;52.418;20.742;2023-07-20T10:16:51;100146.91;;;23.14;53.62
75172;BME280;63750;52.418;20.742;2023-07-20T10:19:25;100149.86;;;23.03;53.56
75172;BME280;63750;52.418;20.742;2023-07-20T10:22:00;100146.95;;;22.93;53.98
75172;BME280;63750;52.418;20.742;2023-07-20T10:24:29;100146.65;;;23.02;53.84
75172;BME280;63750;52.418;20.742;2023-07-20T10:26:57;100144.46;;;23.17;54.00
75172;BME280;63750;52.418;20.742;2023-07-20T10:29:26;100146.61;;;23.27;53.10
75172;BME280;63750;52.418;20.742;2023-07-20T10:31:55;100138.96;;;23.39;53.52
75172;BME280;63750;52.418;20.742;2023-07-20T10:34:23;100132.85;;;23.53;53.10
75172;BME280;63750;52.418;20.742;2023-07-20T10:36:52;100132.04;;;23.72;52.87
75172;BME280;63750;52.418;20.742;2023-07-20T10:39:27;100133.42;;;23.90;52.61
75172;BME280;63750;52.418;20.742;2023-07-20T10:42:03;100133.38;;;23.97;51.58
75172;BME280;63750;52.418;20.742;2023-07-20T10:44:34;100131.58;;;24.24;51.46
75172;BME280;63750;52.418;20.742;2023-07-20T10:47:09;100131.28;;;24.54;50.13
75172;BME280;63750;52.418;20.742;2023-07-20T10:50:01;100120.41;;;24.64;49.10
75172;BME280;63750;52.418;20.742;2023-07-20T10:52:37;100114.27;;;24.66;48.78
75172;BME280;63750;52.418;20.742;2023-07-20T10:55:15;100114.21;;;24.77;49.18
75172;BME280;63750;52.418;20.742;2023-07-20T10:57:44;100108.95;;;24.99;49.35
75172;BME280;63750;52.418;20.742;2023-07-20T11:00:32;100108.72;;;25.26;48.86
75172;BME280;63750;52.418;20.742;2023-07-20T11:03:00;100106.73;;;25.43;48.42
75172;BME280;63750;52.418;20.742;2023-07-20T11:05:38;100106.34;;;25.47;47.51
75172;BME280;63750;52.418;20.742;2023-07-20T11:08:10;100108.67;;;25.47;47.13
75172;BME280;63750;52.418;20.742;2023-07-20T11:10:39;100108.70;;;25.69;47.46
75172;BME280;63750;52.418;20.742;2023-07-20T11:13:24;100107.44;;;25.91;47.49
75172;BME280;63750;52.418;20.742;2023-07-20T11:16:04;100107.09;;;26.02;46.17
75172;BME280;63750;52.418;20.742;2023-07-20T11:18:34;100107.23;;;25.94;45.49
75172;BME280;63750;52.418;20.742;2023-07-20T11:21:03;100107.75;;;25.99;46.64
75172;BME280;63750;52.418;20.742;2023-07-20T11:23:32;100104.27;;;26.08;46.02
75172;BME280;63750;52.418;20.742;2023-07-20T11:26:01;100106.41;;;26.08;45.48
75172;BME280;63750;52.418;20.742;2023-07-20T11:28:32;100108.60;;;26.16;45.49
75172;BME280;63750;52.418;20.742;2023-07-20T11:31:01;100111.50;;;26.22;45.43
75172;BME280;63750;52.418;20.742;2023-07-20T11:33:30;100106.22;;;26.07;44.85
75172;BME280;63750;52.418;20.742;2023-07-20T11:35:58;100100.92;;;25.94;44.98
75172;BME280;63750;52.418;20.742;2023-07-20T11:38:26;100098.35;;;25.91;44.51
75172;BME280;63750;52.418;20.742;2023-07-20T11:40:54;100096.63;;;25.91;45.19
75172;BME280;63750;52.418;20.742;2023-07-20T11:43:24;100093.48;;;25.95;44.79
75172;BME280;63750;52.418;20.742;2023-07-20T11:45:53;100092.42;;;25.92;44.67
75172;BME280;63750;52.418;20.742;2023-07-20T11:48:21;100097.10;;;25.80;45.56
75172;BME280;63750;52.418;20.742;2023-07-20T11:50:49;100100.42;;;25.74;46.27
75172;BME280;63750;52.418;20.742;2023-07-20T11:53:18;100107.73;;;25.70;45.96
75172;BME280;63750;52.418;20.742;2023-07-20T11:55:46;100108.09;;;25.53;46.62
75172;BME280;63750;52.418;20.742;2023-07-20T11:58:14;100106.30;;;25.51;48.44
75172;BME280;63750;52.418;20.742;2023-07-20T12:00:45;100107.08;;;25.60;49.32
75172;BME280;63750;52.418;20.742;2023-07-20T12:03:13;100103.61;;;25.62;49.04
75172;BME280;63750;52.418;20.742;2023-07-20T12:05:44;100104.05;;;25.60;48.99
75172;BME280;63750;52.418;20.742;2023-07-20T12:08:12;100093.14;;;25.63;50.33
75172;BME280;63750;52.418;20.742;2023-07-20T12:10:41;100092.14;;;25.68;48.91
75172;BME280;63750;52.418;20.742;2023-07-20T12:13:12;100086.04;;;25.64;49.19
75172;BME280;63750;52.418;20.742;2023-07-20T12:15:41;100075.69;;;25.62;48.54
75172;BME280;63750;52.418;20.742;2023-07-20T12:18:09;100075.73;;;25.57;50.92
75172;BME280;63750;52.418;20.742;2023-07-20T12:20:38;100078.02;;;25.59;49.05
75172;BME280;63750;52.418;20.742;2023-07-20T12:23:10;100077.85;;;25.36;48.89
75172;BME280;63750;52.418;20.742;2023-07-20T12:25:40;100083.29;;;25.30;50.28
75172;BME280;63750;52.418;20.742;2023-07-20T12:28:10;100082.76;;;25.34;49.83
75172;BME280;63750;52.418;20.742;2023-07-20T12:30:39;100084.25;;;25.34;49.03
75172;BME280;63750;52.418;20.742;2023-07-20T12:33:08;100079.36;;;25.35;49.96
75172;BME280;63750;52.418;20.742;2023-07-20T12:35:37;100080.95;;;25.39;49.63
75172;BME280;63750;52.418;20.742;2023-07-20T12:38:05;100078.99;;;25.36;48.96
75172;BME280;63750;52.418;20.742;2023-07-20T12:40:36;100084.85;;;25.32;47.96
75172;BME280;63750;52.418;20.742;2023-07-20T12:43:07;100086.58;;;25.14;48.29
75172;BME280;63750;52.418;20.742;2023-07-20T12:45:38;100081.92;;;25.10;48.42
75172;BME280;63750;52.418;20.742;2023-07-20T12:48:07;100074.86;;;25.05;48.64
75172;BME280;63750;52.418;20.742;2023-07-20T12:50:35;100069.93;;;25.06;48.74
75172;BME280;63750;52.418;20.742;2023-07-20T12:53:03;100065.14;;;24.96;49.18